Time;durP1;ratioP1;P1;durP2;ratioP2;P2;SDS_P1;SDS_P2;PMS_P1;PMS_P2;Temp;Humidity;BMP_temperature;BMP_pressure;BME280_temperature;BME280_humidity;BME280_pressure;Samples;Min_cycle;Max_cycle;Signal;HPM_P1;HPM_P2
2022/12/21 06:46:04;;;;;;;8.50;7.70;;;8.00;99.90;;;;;;5092039;27;20567;-66
2022/12/21 06:48:32;;;;;;;7.57;7.00;;;8.10;99.90;;;;;;5091457;28;20433;-65
2022/12/21 06:51:01;;;;;;;10.87;7.07;;;8.20;99.90;;;;;;5091327;28;20514;-66
2022/12/21 06:53:30;;;;;;;11.30;7.33;;;8.40;99.90;;;;;;5091375;28;20498;-63
2022/12/21 06:56:01;;;;;;;7.67;7.00;;;8.60;99.90;;;;;;5091259;28;20536;-64
2022/12/21 06:58:28;;;;;;;9.03;6.93;;;8.70;99.90;;;;;;5091231;28;20475;-64
2022/12/21 07:00:55;;;;;;;9.80;6.23;;;8.80;99.90;;;;;;5091249;28;20470;-65
2022/12/21 07:03:23;;;;;;;11.93;7.10;;;8.90;99.90;;;;;;5091506;28;20445;-64
2022/12/21 07:05:50;;;;;;;9.10;6.97;;;9.00;99.90;;;;;;5091481;28;20508;-64
2022/12/21 07:08:17;;;;;;;10.80;7.00;;;9.10;99.90;;;;;;5091320;28;20824;-65
2022/12/21 07:10:44;;;;;;;9.43;7.40;;;9.10;99.90;;;;;;5090970;28;20470;-64
2022/12/21 07:13:10;;;;;;;8.20;7.40;;;9.20;99.90;;;;;;5091035;28;20450;-64
2022/12/21 07:15:37;;;;;;;10.60;7.50;;;9.20;99.90;;;;;;5091112;28;20449;-64
2022/12/21 07:18:04;;;;;;;9.50;7.17;;;9.30;99.90;;;;;;5090867;28;20453;-64
2022/12/21 07:20:32;;;;;;;11.23;6.90;;;9.40;99.90;;;;;;5090882;28;20556;-62
2022/12/21 07:22:58;;;;;;;8.13;6.50;;;9.40;99.90;;;;;;5091230;28;20450;-62
2022/12/21 07:25:25;;;;;;;9.40;7.07;;;9.50;99.90;;;;;;5091149;28;20469;-64
2022/12/21 07:27:52;;;;;;;9.10;8.10;;;9.50;99.90;;;;;;5090892;28;20457;-64
2022/12/21 07:30:19;;;;;;;11.20;7.73;;;9.50;99.90;;;;;;5090603;28;20449;-64
2022/12/21 07:32:45;;;;;;;10.10;8.57;;;9.60;99.90;;;;;;5090842;28;20449;-63
2022/12/21 07:35:12;;;;;;;12.07;8.70;;;9.60;99.90;;;;;;5090745;28;20445;-65
2022/12/21 07:37:40;;;;;;;12.60;9.60;;;9.60;99.90;;;;;;5090611;28;20457;-64
2022/12/21 07:40:08;;;;;;;12.20;10.93;;;9.60;99.90;;;;;;5090808;28;20453;-64
2022/12/21 07:42:34;;;;;;;10.03;8.37;;;9.70;99.90;;;;;;5090376;28;20473;-65
2022/12/21 07:45:01;;;;;;;15.17;10.73;;;9.70;99.90;;;;;;5090295;28;20469;-62
2022/12/21 07:47:28;;;;;;;14.47;10.47;;;9.70;99.90;;;;;;5090981;28;20449;-64
2022/12/21 07:49:55;;;;;;;9.97;9.03;;;9.70;99.90;;;;;;5090632;28;20483;-64
2022/12/21 07:52:22;;;;;;;14.70;8.70;;;9.70;99.90;;;;;;5090536;28;20534;-64
2022/12/21 07:54:50;;;;;;;7.33;6.60;;;9.70;99.90;;;;;;5090451;28;20854;-64
2022/12/21 07:57:16;;;;;;;9.47;7.30;;;9.80;99.90;;;;;;5077365;28;20454;-64
2022/12/21 07:59:43;;;;;;;9.17;7.93;;;9.80;99.90;;;;;;5076798;28;20453;-63
2022/12/21 08:02:10;;;;;;;11.93;7.37;;;9.80;99.90;;;;;;5076677;28;20528;-62
2022/12/21 08:04:36;;;;;;;7.87;6.97;;;9.90;99.90;;;;;;5076739;28;20470;-62
2022/12/21 08:07:03;;;;;;;6.93;6.17;;;9.90;99.90;;;;;;5076317;28;20454;-63
2022/12/21 08:09:30;;;;;;;10.40;6.37;;;9.90;99.90;;;;;;5076311;28;20454;-62
2022/12/21 08:11:58;;;;;;;7.93;5.53;;;10.00;99.90;;;;;;5076712;28;20520;-63
2022/12/21 08:14:25;;;;;;;8.27;6.10;;;10.00;99.90;;;;;;5076832;28;20454;-62
2022/12/21 08:16:51;;;;;;;7.83;5.40;;;10.00;99.90;;;;;;5077124;28;20457;-63
2022/12/21 08:19:18;;;;;;;11.17;5.87;;;10.00;99.90;;;;;;5076846;28;20450;-63
2022/12/21 08:21:45;;;;;;;6.13;4.73;;;10.00;99.90;;;;;;5076698;28;20481;-63
2022/12/21 08:24:12;;;;;;;7.70;4.70;;;10.00;99.90;;;;;;5076422;28;20508;-63
2022/12/21 08:26:39;;;;;;;7.33;5.43;;;10.00;99.90;;;;;;5076317;28;20860;-63
2022/12/21 15:23:25;;;;;;;2.47;2.17;;;11.40;99.90;;;;;;5091884;27;20548;-63
2022/12/21 15:26:00;;;;;;;2.80;2.40;;;11.30;99.90;;;;;;5091655;28;20484;-62
2022/12/21 15:28:31;;;;;;;2.43;2.23;;;11.40;99.90;;;;;;5092143;28;20463;-61
2022/12/21 15:31:04;;;;;;;2.20;2.10;;;11.50;99.90;;;;;;5091740;28;20473;-63
2022/12/21 15:33:35;;;;;;;4.17;2.20;;;11.70;99.90;;;;;;5092441;28;20468;-61
2022/12/21 15:36:05;;;;;;;2.10;2.00;;;11.80;99.90;;;;;;5092218;28;20844;-63
2022/12/21 15:38:38;;;;;;;4.60;2.50;;;11.90;99.90;;;;;;5091430;28;20499;-63
2022/12/21 15:41:15;;;;;;;2.07;1.97;;;12.00;99.90;;;;;;5092227;28;20469;-62
2022/12/21 15:43:47;;;;;;;3.37;3.10;;;12.10;99.90;;;;;;5091905;28;20460;-61
2022/12/21 15:46:17;;;;;;;2.87;2.67;;;12.10;99.90;;;;;;5093122;28;20434;-61
2022/12/21 15:48:46;;;;;;;3.10;2.90;;;12.10;99.90;;;;;;5091664;28;20449;-61
2022/12/21 15:51:20;;;;;;;3.27;2.97;;;12.10;99.90;;;;;;5091750;28;20474;-61
2022/12/21 15:54:04;;;;;;;3.00;2.53;;;12.10;99.90;;;;;;5091244;28;20434;-60
2022/12/21 15:56:31;;;;;;;2.03;1.93;;;12.20;99.90;;;;;;5090903;28;20437;-61
2022/12/21 15:58:58;;;;;;;2.10;2.00;;;12.20;99.90;;;;;;5090805;28;20928;-61
2022/12/21 16:01:28;;;;;;;2.30;2.10;;;12.20;99.90;;;;;;5090819;28;20484;-61
2022/12/21 16:03:55;;;;;;;2.63;2.40;;;12.20;99.90;;;;;;5090767;28;20449;-63
2022/12/21 16:06:24;;;;;;;3.47;2.50;;;12.20;99.90;;;;;;5091255;28;20503;-61
2022/12/21 16:08:56;;;;;;;2.87;2.43;;;12.20;99.90;;;;;;5091663;28;20489;-63
2022/12/21 16:11:29;;;;;;;3.07;2.70;;;12.20;99.90;;;;;;5090927;28;20473;-61
2022/12/21 16:14:02;;;;;;;4.10;2.70;;;12.10;99.90;;;;;;5090672;28;20810;-65
2022/12/21 16:16:29;;;;;;;2.97;2.60;;;12.10;99.90;;;;;;5090707;28;20475;-61
2022/12/21 16:18:58;;;;;;;2.77;2.57;;;12.10;99.90;;;;;;5090151;28;20804;-62
2022/12/21 16:21:32;;;;;;;2.90;2.70;;;12.10;99.90;;;;;;5090168;28;20477;-62
2022/12/21 16:24:05;;;;;;;3.20;2.80;;;12.10;99.90;;;;;;5090689;28;20444;-63
2022/12/21 16:26:33;;;;;;;3.50;3.30;;;12.10;99.90;;;;;;5090428;28;20469;-63
2022/12/21 16:29:02;;;;;;;3.70;2.93;;;12.10;99.90;;;;;;5090782;28;20954;-61
2022/12/21 16:31:44;;;;;;;2.93;2.60;;;12.10;99.90;;;;;;5090738;28;20539;-63
2022/12/21 16:34:24;;;;;;;3.17;2.97;;;12.10;99.90;;;;;;5080481;28;20941;-63
2022/12/21 16:36:51;;;;;;;4.27;3.70;;;12.10;99.90;;;;;;5077940;28;20444;-62
2022/12/21 16:39:20;;;;;;;4.30;3.40;;;12.10;99.90;;;;;;5077045;28;20464;-61
2022/12/21 16:41:49;;;;;;;3.83;3.53;;;12.00;99.90;;;;;;5076430;28;20535;-61
2022/12/21 16:44:37;;;;;;;3.70;3.13;;;12.00;99.90;;;;;;5076574;28;20500;-62
2022/12/21 16:47:27;;;;;;;5.37;4.40;;;12.00;99.90;;;;;;5076666;28;20488;-61
2022/12/21 16:49:55;;;;;;;4.30;3.83;;;12.00;99.90;;;;;;5071400;28;20450;-61
2022/12/21 16:52:42;;;;;;;2.93;2.70;;;11.90;99.90;;;;;;5076339;28;20473;-61
2022/12/21 16:55:17;;;;;;;4.97;2.87;;;11.90;99.90;;;;;;5066880;28;20450;-61
2022/12/21 16:57:44;;;;;;;3.90;2.50;;;11.90;99.90;;;;;;5077036;28;20492;-62
2022/12/21 17:00:18;;;;;;;3.83;2.70;;;11.80;99.90;;;;;;5077918;28;20877;-62
2022/12/21 17:02:53;;;;;;;2.70;2.50;;;11.80;99.90;;;;;;5079158;28;20462;-61
2022/12/21 17:05:25;;;;;;;2.87;2.60;;;11.70;99.90;;;;;;5078659;28;20438;-60
2022/12/21 17:07:53;;;;;;;2.90;2.70;;;11.70;99.90;;;;;;5077532;28;20445;-61
2022/12/21 17:10:24;;;;;;;3.10;2.87;;;11.60;99.90;;;;;;5076592;28;20457;-65
2022/12/21 17:12:54;;;;;;;3.93;2.80;;;11.60;99.90;;;;;;5076908;28;20435;-61
2022/12/21 17:15:27;;;;;;;3.47;3.23;;;11.50;99.90;;;;;;5077335;28;20484;-61
2022/12/21 17:17:55;;;;;;;3.90;3.60;;;11.50;99.90;;;;;;5076545;28;20438;-61
2022/12/21 17:20:26;;;;;;;3.57;3.20;;;11.50;99.90;;;;;;5076633;28;20473;-62
2022/12/21 17:23:03;;;;;;;3.43;3.10;;;11.40;99.90;;;;;;5076423;28;20484;-62
2022/12/21 17:25:43;;;;;;;7.33;4.37;;;11.40;99.90;;;;;;5076255;28;20445;-62
2022/12/21 17:28:10;;;;;;;6.50;3.70;;;11.40;99.90;;;;;;5076406;28;20525;-62
2022/12/21 17:30:41;;;;;;;9.67;8.17;;;11.30;99.90;;;;;;5075711;28;20449;-62
2022/12/21 17:33:21;;;;;;;6.40;5.80;;;11.30;99.90;;;;;;5075857;28;20451;-64
2022/12/21 17:35:48;;;;;;;6.87;6.10;;;11.20;99.90;;;;;;5076284;28;20446;-64
2022/12/21 17:38:16;;;;;;;5.73;4.93;;;11.20;99.90;;;;;;5076380;28;20450;-64
2022/12/21 17:40:44;;;;;;;5.33;3.90;;;11.20;99.90;;;;;;5076052;28;21030;-65
2022/12/21 17:43:11;;;;;;;5.33;4.83;;;11.10;99.90;;;;;;5075348;28;20901;-65
2022/12/21 17:45:38;;;;;;;4.90;4.50;;;11.10;99.90;;;;;;5074631;28;20454;-65
2022/12/21 17:48:06;;;;;;;4.93;4.53;;;11.10;99.90;;;;;;5076630;28;20450;-64
2022/12/21 17:50:35;;;;;;;7.30;6.30;;;11.00;99.90;;;;;;5075598;28;20648;-64
2022/12/21 17:53:04;;;;;;;6.00;5.20;;;11.00;99.90;;;;;;5075486;28;20456;-65
2022/12/21 17:55:31;;;;;;;6.30;5.70;;;11.00;99.90;;;;;;5075482;28;20450;-64
2022/12/21 17:57:59;;;;;;;6.10;5.50;;;10.90;99.90;;;;;;5075552;28;20454;-64
2022/12/21 18:00:28;;;;;;;6.30;5.70;;;10.90;99.90;;;;;;5075535;28;20523;-64
2022/12/21 18:02:59;;;;;;;5.43;4.93;;;10.90;99.90;;;;;;5075114;28;20849;-64
2022/12/21 18:05:26;;;;;;;4.80;4.50;;;10.90;99.90;;;;;;5075674;28;20434;-65
2022/12/21 18:07:54;;;;;;;4.90;4.50;;;10.90;99.90;;;;;;5075731;28;20511;-65
2022/12/21 18:10:23;;;;;;;4.30;3.90;;;10.90;99.90;;;;;;5075422;28;20545;-64
2022/12/21 18:12:51;;;;;;;4.50;4.07;;;10.90;99.90;;;;;;5076315;28;20453;-65
2022/12/21 18:15:19;;;;;;;6.03;4.70;;;10.90;99.90;;;;;;5075911;28;20454;-64
2022/12/21 18:17:52;;;;;;;3.70;3.33;;;10.90;99.90;;;;;;5076020;28;20459;-65
2022/12/21 18:20:21;;;;;;;4.57;4.27;;;10.90;99.90;;;;;;5075338;28;20439;-66
2022/12/21 18:22:48;;;;;;;5.73;5.33;;;10.90;99.90;;;;;;5074647;28;20481;-66
2022/12/21 18:25:16;;;;;;;6.20;5.47;;;10.90;99.90;;;;;;5075035;28;20450;-65
2022/12/21 18:27:43;;;;;;;5.77;5.27;;;10.90;99.90;;;;;;5075145;28;20450;-65
2022/12/21 18:30:15;;;;;;;6.33;4.87;;;10.90;99.90;;;;;;5074923;28;20505;-65
2022/12/21 18:32:45;;;;;;;5.43;4.60;;;10.80;99.90;;;;;;5074882;28;20481;-65
2022/12/21 18:35:18;;;;;;;4.50;4.20;;;10.80;99.90;;;;;;5074995;28;20537;-65
2022/12/21 18:37:46;;;;;;;4.40;4.10;;;10.80;99.90;;;;;;5075380;28;20445;-65
2022/12/21 18:40:16;;;;;;;4.13;3.73;;;10.80;99.90;;;;;;5074337;28;20944;-65
2022/12/21 18:42:43;;;;;;;4.77;4.47;;;10.80;99.90;;;;;;5074573;28;20474;-65
2022/12/21 18:45:10;;;;;;;4.33;3.93;;;10.70;99.90;;;;;;5074432;28;20507;-65
2022/12/21 18:47:37;;;;;;;4.23;3.93;;;10.70;99.90;;;;;;5074658;28;20523;-65
2022/12/21 18:50:13;;;;;;;5.10;4.60;;;10.70;99.90;;;;;;5074582;28;20934;-65
2022/12/21 18:52:41;;;;;;;3.37;3.07;;;10.80;99.90;;;;;;5075388;28;20473;-66
2022/12/21 18:55:13;;;;;;;3.67;3.47;;;10.70;99.90;;;;;;5074152;28;20511;-65
2022/12/21 18:57:40;;;;;;;3.57;3.23;;;10.80;99.90;;;;;;5074634;28;20487;-64
2022/12/21 19:00:08;;;;;;;4.10;3.77;;;10.80;99.90;;;;;;5074977;28;20862;-65
2022/12/21 19:02:35;;;;;;;3.73;3.43;;;10.80;99.90;;;;;;5074554;28;20470;-65
2022/12/21 19:05:05;;;;;;;4.00;3.37;;;10.80;99.90;;;;;;5074923;28;20454;-64
2022/12/21 19:07:35;;;;;;;4.23;3.50;;;10.80;99.90;;;;;;5074589;28;20469;-65
2022/12/21 19:10:02;;;;;;;4.57;3.00;;;10.80;99.90;;;;;;5074638;28;20471;-65
2022/12/21 19:12:29;;;;;;;3.67;3.33;;;10.80;99.90;;;;;;5074410;28;20506;-64
2022/12/21 19:14:56;;;;;;;3.53;3.30;;;10.80;99.90;;;;;;5074208;28;20454;-65
2022/12/21 19:17:32;;;;;;;6.03;3.70;;;10.70;99.90;;;;;;5074775;28;20454;-65
2022/12/21 19:19:59;;;;;;;4.13;3.50;;;10.70;99.90;;;;;;5074964;28;20438;-64
2022/12/21 19:22:29;;;;;;;3.97;3.67;;;10.70;99.90;;;;;;5074708;28;21046;-65
2022/12/21 19:25:00;;;;;;;5.47;3.87;;;10.70;99.90;;;;;;5075192;28;20454;-65
2022/12/21 19:27:27;;;;;;;4.27;3.97;;;10.70;99.90;;;;;;5074627;28;20438;-65
2022/12/21 19:29:53;;;;;;;4.50;4.20;;;10.80;99.90;;;;;;5074354;28;20461;-65
2022/12/21 19:32:20;;;;;;;4.13;3.83;;;10.70;99.90;;;;;;5075325;28;20474;-64
2022/12/21 19:34:47;;;;;;;4.43;4.13;;;10.70;99.90;;;;;;5074667;28;20449;-66
2022/12/21 19:37:23;;;;;;;4.43;4.03;;;10.70;99.90;;;;;;5075226;28;20457;-65
2022/12/21 19:39:53;;;;;;;3.90;3.30;;;10.70;99.90;;;;;;5075755;28;20979;-65
2022/12/21 19:42:23;;;;;;;4.50;4.10;;;10.80;99.90;;;;;;5073852;28;20470;-65
2022/12/21 19:44:51;;;;;;;4.03;3.80;;;10.80;99.90;;;;;;5073558;28;20434;-65
2022/12/21 19:47:20;;;;;;;7.40;6.80;;;10.80;99.90;;;;;;5074247;28;20937;-65
2022/12/21 19:49:47;;;;;;;8.53;7.73;;;10.80;99.90;;;;;;5074156;28;20457;-65
2022/12/21 19:52:14;;;;;;;6.33;5.73;;;10.80;99.90;;;;;;5074007;28;20474;-64
2022/12/21 19:54:41;;;;;;;8.70;7.73;;;10.80;99.90;;;;;;5074215;28;20528;-65
2022/12/21 19:57:18;;;;;;;10.03;9.03;;;10.80;99.90;;;;;;5074015;28;20937;-66
2022/12/21 19:59:45;;;;;;;7.37;6.57;;;10.70;99.90;;;;;;5074320;28;20465;-65
2022/12/21 20:02:21;;;;;;;9.67;8.67;;;10.70;99.90;;;;;;5074066;28;20474;-64
2022/12/21 20:04:48;;;;;;;6.67;6.07;;;10.70;99.90;;;;;;5075221;28;20909;-66
2022/12/21 20:07:15;;;;;;;10.20;8.50;;;10.60;99.90;;;;;;5078539;28;20454;-65
2022/12/21 20:09:41;;;;;;;6.30;5.03;;;10.60;99.90;;;;;;5082867;28;20450;-65
2022/12/21 20:12:12;;;;;;;5.80;5.20;;;10.60;99.90;;;;;;5080284;28;20477;-65
2022/12/21 20:14:42;;;;;;;22.80;16.10;;;10.60;99.90;;;;;;5077954;28;20434;-64
2022/12/21 20:17:14;;;;;;;12.67;8.33;;;10.60;99.90;;;;;;5077913;28;20950;-64
2022/12/21 20:19:41;;;;;;;6.73;4.97;;;10.50;99.90;;;;;;5077701;28;20545;-64
2022/12/21 20:22:12;;;;;;;6.27;5.60;;;10.50;99.90;;;;;;5077253;28;20481;-64
2022/12/21 20:24:38;;;;;;;6.47;5.83;;;10.50;99.90;;;;;;5077015;28;20549;-63
2022/12/21 20:27:05;;;;;;;4.17;3.90;;;10.50;99.90;;;;;;5077072;28;20488;-63
2022/12/21 20:29:33;;;;;;;7.27;6.53;;;10.50;99.90;;;;;;5076832;28;20439;-62
2022/12/21 20:32:00;;;;;;;5.13;4.60;;;10.50;99.90;;;;;;5076493;28;20976;-63
2022/12/21 20:34:28;;;;;;;4.33;3.97;;;10.50;99.90;;;;;;5076816;28;20450;-63
2022/12/21 20:36:55;;;;;;;5.73;5.30;;;10.40;99.90;;;;;;5076447;28;20457;-63
2022/12/21 20:39:23;;;;;;;6.10;5.50;;;10.40;99.90;;;;;;5076823;28;20491;-63
2022/12/21 20:44:42;;;;;;;5.63;5.13;;;10.40;99.90;;;;;;5077050;28;20453;-63
2022/12/21 20:47:13;;;;;;;4.97;4.40;;;10.40;99.90;;;;;;5076903;28;20438;-63
2022/12/21 20:49:42;;;;;;;7.03;4.30;;;10.50;99.90;;;;;;5077175;28;20438;-63
2022/12/21 20:52:18;;;;;;;4.73;4.00;;;10.50;99.90;;;;;;5076517;28;20481;-63
2022/12/21 20:54:44;;;;;;;4.23;4.00;;;10.40;99.90;;;;;;5076127;28;20921;-64
2022/12/21 20:57:11;;;;;;;3.90;3.60;;;10.50;99.90;;;;;;5076291;28;20953;-64
2022/12/21 20:59:39;;;;;;;4.20;3.20;;;10.50;99.90;;;;;;5076464;28;20503;-64
2022/12/21 21:02:13;;;;;;;3.57;3.37;;;10.50;99.90;;;;;;5080020;28;20523;-64
2022/12/21 21:04:40;;;;;;;3.80;3.57;;;10.50;99.90;;;;;;5079437;28;20457;-65
2022/12/21 21:07:19;;;;;;;3.17;2.97;;;10.50;99.90;;;;;;5079029;28;20446;-64
2022/12/21 21:09:46;;;;;;;3.37;3.17;;;10.50;99.90;;;;;;5077152;28;20939;-64
2022/12/21 21:12:12;;;;;;;3.17;2.87;;;10.50;99.90;;;;;;5076930;28;20504;-64
2022/12/21 21:14:40;;;;;;;3.30;3.07;;;10.60;99.90;;;;;;5076884;28;21006;-64
2022/12/21 21:17:19;;;;;;;3.20;2.90;;;10.60;99.90;;;;;;5077685;28;20508;-64
2022/12/21 21:19:46;;;;;;;3.30;3.00;;;10.60;99.90;;;;;;5076253;28;20438;-64
2022/12/21 21:25:21;;;;;;;2.73;2.30;;;10.70;99.90;;;;;;5076685;28;20477;-64
2022/12/21 21:27:47;;;;;;;2.73;2.53;;;10.70;99.90;;;;;;5077116;28;20437;-63
2022/12/21 21:30:18;;;;;;;3.17;2.43;;;10.70;99.90;;;;;;5078112;28;20461;-63
2022/12/21 21:32:45;;;;;;;2.63;2.43;;;10.70;99.90;;;;;;5076887;28;20466;-63
2022/12/21 21:35:12;;;;;;;2.27;2.17;;;10.70;99.90;;;;;;5076110;28;20941;-64
2022/12/21 21:37:38;;;;;;;2.43;2.23;;;10.80;99.90;;;;;;5075612;28;20472;-63
2022/12/21 21:42:57;;;;;;;1.97;1.80;;;10.80;99.90;;;;;;5075905;28;20492;-63
2022/12/21 21:45:25;;;;;;;2.10;2.00;;;10.80;99.90;;;;;;5076140;28;20458;-63
2022/12/21 21:47:52;;;;;;;2.40;2.23;;;10.90;99.90;;;;;;5077101;28;20831;-63
2022/12/21 21:50:22;;;;;;;4.20;1.90;;;10.90;99.90;;;;;;5076753;28;20855;-63
2022/12/21 21:52:49;;;;;;;2.23;2.10;;;11.00;99.90;;;;;;5075422;28;20499;-63
2022/12/21 21:55:17;;;;;;;1.93;1.87;;;11.00;99.90;;;;;;5076999;28;20454;-62
2022/12/21 21:57:48;;;;;;;2.17;2.03;;;11.00;99.90;;;;;;5075918;28;20438;-63
2022/12/21 22:00:17;;;;;;;2.13;1.73;;;10.90;99.90;;;;;;5075788;28;20488;-63
2022/12/21 22:02:50;;;;;;;1.87;1.77;;;11.00;99.90;;;;;;5075640;28;20469;-62
2022/12/21 22:05:19;;;;;;;2.87;2.07;;;11.00;99.90;;;;;;5075686;28;20459;-61
2022/12/21 22:07:45;;;;;;;2.60;2.40;;;11.00;99.90;;;;;;5076656;28;20450;-63
2022/12/21 22:10:30;;;;;;;2.30;2.10;;;11.00;99.90;;;;;;5077039;28;20439;-63
2022/12/21 22:12:58;;;;;;;1.90;1.80;;;11.00;99.90;;;;;;5076353;28;20536;-63
2022/12/21 22:15:31;;;;;;;2.00;1.90;;;11.00;99.90;;;;;;5076224;28;20454;-64
